Cairo, Missouri
Current Conditions -  °F | °C
As of 7:15 PM on Friday 28 Nov 2014 (Local Time) from KVER Reporting Station
Clear Clear  
Wind Chill:   Ceiling: Unl
Heat Index:   Visibility: 10mi
Dew Point:   Wind: 8mph
Humidity: 61%   Direction: 150°SSE
Pressure: 29.83"   Gusts: NA
Location:  39.51°N, 92.44°W
Report Text: KVER 290115Z AUTO 15007KT 10SM CLR 08/01 A2983 RMK AO2 T00780008
Loading
Personal Weather Stations






























Interactive Weather Map New forecast layout! Learn more

10-Day Weather Forecast

Advertisements
Track Severe Weather on mobile